Time;durP1;ratioP1;P1;durP2;ratioP2;P2;SDS_P1;SDS_P2;PMS_P1;PMS_P2;Temp;Humidity;BMP_temperature;BMP_pressure;BME280_temperature;BME280_humidity;BME280_pressure;Samples;Min_cycle;Max_cycle;Signal;HPM_P1;HPM_P2
2023/08/06 00:00:27;;;;;;;10.98;6.25;;;15.20;99.90;;;;;;6254099;22;20016;-63
2023/08/06 00:02:53;;;;;;;7.57;5.70;;;15.20;99.90;;;;;;6252445;22;20034;-63
2023/08/06 00:05:20;;;;;;;10.23;5.63;;;15.20;99.90;;;;;;6254353;22;20024;-63
2023/08/06 00:07:50;;;;;;;8.38;6.05;;;15.20;99.90;;;;;;6252064;22;20028;-64
2023/08/06 00:10:16;;;;;;;7.32;5.40;;;15.20;99.90;;;;;;6253811;22;20555;-63
2023/08/06 00:12:43;;;;;;;11.27;6.15;;;15.20;99.90;;;;;;6280931;22;20024;-63
2023/08/06 00:15:10;;;;;;;8.82;5.97;;;15.20;99.90;;;;;;6279830;22;20034;-63
2023/08/06 00:17:36;;;;;;;11.93;6.13;;;15.20;99.90;;;;;;6253837;22;20459;-63
2023/08/06 00:20:05;;;;;;;8.95;6.18;;;15.20;99.90;;;;;;6252236;22;20024;-63
2023/08/06 00:22:35;;;;;;;8.70;6.47;;;15.20;99.90;;;;;;6281223;22;20032;-63
2023/08/06 00:25:02;;;;;;;9.95;5.97;;;15.20;99.90;;;;;;6279521;22;20023;-64
2023/08/06 00:27:27;;;;;;;11.35;5.88;;;15.10;99.90;;;;;;6227995;22;20043;-63
2023/08/06 00:29:53;;;;;;;7.88;5.70;;;15.20;99.90;;;;;;6227943;22;20255;-63
2023/08/06 00:32:19;;;;;;;8.23;5.43;;;15.20;99.90;;;;;;6279956;22;20030;-63
2023/08/06 00:34:45;;;;;;;9.18;5.53;;;15.10;99.90;;;;;;6281335;22;20047;-63
2023/08/06 00:37:11;;;;;;;9.15;5.90;;;15.10;99.90;;;;;;6252157;22;20027;-63
2023/08/06 00:39:37;;;;;;;7.85;5.70;;;15.10;99.90;;;;;;6281349;22;20075;-63
2023/08/06 00:42:03;;;;;;;8.57;5.47;;;15.10;99.90;;;;;;6279474;22;20020;-63
2023/08/06 00:44:29;;;;;;;10.27;5.70;;;15.10;99.90;;;;;;6228268;22;20031;-64
2023/08/06 00:46:55;;;;;;;12.52;5.28;;;15.10;99.90;;;;;;6227432;22;20061;-63
2023/08/06 00:49:21;;;;;;;6.97;4.90;;;15.10;99.90;;;;;;6252568;22;20027;-63
2023/08/06 00:51:47;;;;;;;10.30;5.53;;;15.00;99.90;;;;;;6253326;22;20303;-63
2023/08/06 00:54:13;;;;;;;6.07;4.85;;;15.10;99.90;;;;;;6252322;22;20020;-63
2023/08/06 00:56:41;;;;;;;9.95;5.72;;;15.10;99.90;;;;;;6281022;22;20046;-63
2023/08/06 00:59:08;;;;;;;7.05;5.40;;;15.00;99.90;;;;;;6251627;22;20043;-63
2023/08/06 01:01:34;;;;;;;9.55;5.63;;;15.10;99.90;;;;;;6253281;22;20079;-63
2023/08/06 01:04:01;;;;;;;9.05;5.43;;;15.00;99.90;;;;;;6280155;22;20027;-63
2023/08/06 01:06:35;;;;;;;7.45;5.63;;;15.00;99.90;;;;;;6251915;22;20103;-63
2023/08/06 01:09:18;;;;;;;12.95;5.18;;;15.00;99.90;;;;;;6253396;22;20046;-63
2023/08/06 01:12:05;;;;;;;10.20;5.88;;;15.00;99.90;;;;;;6228519;22;20043;-63
2023/08/06 01:14:56;;;;;;;7.72;5.05;;;15.00;99.90;;;;;;6280712;22;20016;-63
2023/08/06 01:17:23;;;;;;;8.63;5.93;;;15.00;99.90;;;;;;6252929;22;20027;-63
2023/08/06 01:19:49;;;;;;;7.95;5.57;;;15.00;99.90;;;;;;6226501;22;20024;-63
2023/08/06 01:22:15;;;;;;;8.07;5.68;;;15.00;99.90;;;;;;6280494;22;20031;-63
2023/08/06 01:24:44;;;;;;;11.85;5.93;;;15.00;99.90;;;;;;6279162;22;20417;-62
2023/08/06 01:27:17;;;;;;;11.75;5.97;;;15.00;99.90;;;;;;6253482;22;20091;-63
2023/08/06 01:29:48;;;;;;;7.90;5.65;;;15.00;99.90;;;;;;6253729;22;20062;-63
2023/08/06 01:32:16;;;;;;;9.48;5.82;;;15.00;99.90;;;;;;6279846;22;20030;-63
2023/08/06 01:34:47;;;;;;;7.53;5.57;;;14.90;99.90;;;;;;6253234;22;20034;-63
2023/08/06 01:37:13;;;;;;;10.88;5.57;;;14.90;99.90;;;;;;6227040;22;20031;-63
2023/08/06 01:39:42;;;;;;;13.55;6.00;;;15.00;99.90;;;;;;6280805;22;20016;-63
2023/08/06 01:42:08;;;;;;;8.43;6.05;;;14.90;99.90;;;;;;6279297;22;20085;-63
2023/08/06 01:44:34;;;;;;;7.15;5.47;;;15.00;99.90;;;;;;6252903;22;20502;-63
2023/08/06 01:47:00;;;;;;;9.88;5.43;;;14.90;99.90;;;;;;6279908;22;20023;-63
2023/08/06 01:49:25;;;;;;;10.13;6.07;;;14.90;99.90;;;;;;6251605;22;20023;-64
2023/08/06 01:51:51;;;;;;;11.40;6.03;;;14.90;99.90;;;;;;6253031;22;20082;-63
2023/08/06 01:54:17;;;;;;;7.80;5.70;;;14.80;99.90;;;;;;6278804;22;20027;-62
2023/08/06 01:56:42;;;;;;;8.50;6.13;;;14.90;99.90;;;;;;6280661;22;20038;-63
2023/08/06 01:59:08;;;;;;;11.07;6.00;;;14.90;99.90;;;;;;6278328;22;20027;-62
2023/08/06 02:01:34;;;;;;;10.15;5.95;;;14.90;99.90;;;;;;6252945;22;20055;-63
2023/08/06 02:04:00;;;;;;;8.13;5.20;;;14.90;99.90;;;;;;6251648;22;20030;-63
2023/08/06 02:06:25;;;;;;;6.40;5.40;;;14.80;99.90;;;;;;6251945;22;20094;-63
2023/08/06 02:08:51;;;;;;;9.35;6.13;;;14.90;99.90;;;;;;6227360;22;20138;-62
2023/08/06 02:11:19;;;;;;;6.75;5.03;;;14.90;99.90;;;;;;6251794;22;20125;-63
2023/08/06 02:13:46;;;;;;;8.45;5.93;;;14.80;99.90;;;;;;6280609;22;20023;-64
2023/08/06 02:16:11;;;;;;;7.90;5.68;;;14.80;99.90;;;;;;6278815;22;20039;-63
2023/08/06 02:18:37;;;;;;;11.00;6.20;;;14.80;99.90;;;;;;6227591;22;20024;-63
2023/08/06 02:21:03;;;;;;;7.22;5.45;;;14.90;99.90;;;;;;6252029;22;20031;-63
2023/08/06 02:23:29;;;;;;;8.02;5.88;;;14.90;99.90;;;;;;6252423;22;20035;-63
2023/08/06 02:26:04;;;;;;;6.97;5.32;;;14.90;99.90;;;;;;6279837;22;20035;-63
2023/08/06 02:28:31;;;;;;;6.45;5.03;;;14.80;99.90;;;;;;6278720;22;20096;-63
2023/08/06 02:30:57;;;;;;;7.18;5.45;;;14.80;99.90;;;;;;6280394;22;20020;-63
2023/08/06 02:33:23;;;;;;;8.65;5.88;;;14.80;99.90;;;;;;6277714;22;20058;-62
2023/08/06 02:35:48;;;;;;;9.50;5.95;;;14.80;99.90;;;;;;6253112;22;20023;-63
2023/08/06 02:38:14;;;;;;;9.82;5.97;;;14.80;99.90;;;;;;6251528;22;20038;-63
2023/08/06 02:40:46;;;;;;;8.50;5.90;;;14.70;99.90;;;;;;6252021;22;20035;-63
2023/08/06 02:43:13;;;;;;;8.68;6.70;;;14.80;99.90;;;;;;6280119;22;20050;-63
2023/08/06 02:45:39;;;;;;;12.43;6.22;;;14.80;99.90;;;;;;6250739;22;20024;-63
2023/08/06 02:48:05;;;;;;;9.32;7.00;;;14.80;99.90;;;;;;6227389;22;20059;-64
2023/08/06 02:50:31;;;;;;;7.82;6.07;;;14.80;99.90;;;;;;6278263;22;20023;-63
2023/08/06 02:52:57;;;;;;;8.65;6.78;;;14.80;99.90;;;;;;6280116;22;20449;-63
2023/08/06 02:55:22;;;;;;;9.52;6.20;;;14.80;99.90;;;;;;6279014;22;20053;-63
2023/08/06 02:57:48;;;;;;;10.20;7.22;;;14.80;99.90;;;;;;6226291;22;20030;-63
2023/08/06 03:00:14;;;;;;;8.30;6.57;;;14.80;99.90;;;;;;6251857;22;20051;-62
2023/08/06 03:02:40;;;;;;;8.65;6.63;;;14.80;99.90;;;;;;6278728;22;20023;-63
2023/08/06 03:05:06;;;;;;;7.40;6.20;;;14.80;99.90;;;;;;6280487;22;20054;-63
2023/08/06 03:07:33;;;;;;;10.27;6.88;;;14.80;99.90;;;;;;6278532;22;20031;-62
2023/08/06 03:10:01;;;;;;;8.75;5.93;;;14.80;99.90;;;;;;6280401;22;20039;-63
2023/08/06 03:12:27;;;;;;;9.68;6.35;;;14.80;99.90;;;;;;6279408;22;20019;-63
2023/08/06 03:14:53;;;;;;;10.63;6.55;;;14.80;99.90;;;;;;6251636;22;20030;-63
2023/08/06 03:17:18;;;;;;;9.77;6.10;;;14.70;99.90;;;;;;6252524;22;20031;-63
2023/08/06 03:19:44;;;;;;;8.13;6.63;;;14.70;99.90;;;;;;6225806;22;20035;-63
2023/08/06 03:22:10;;;;;;;10.80;6.97;;;14.80;99.90;;;;;;6252553;22;20019;-62
2023/08/06 03:24:36;;;;;;;9.40;6.13;;;14.70;99.90;;;;;;6250835;22;20084;-63
2023/08/06 03:27:01;;;;;;;9.10;6.97;;;14.70;99.90;;;;;;6252569;22;20027;-63
2023/08/06 03:29:27;;;;;;;11.45;6.88;;;14.70;99.90;;;;;;6225478;22;20039;-62
2023/08/06 03:31:53;;;;;;;8.60;5.68;;;14.70;99.90;;;;;;6251789;22;20496;-63
2023/08/06 03:34:19;;;;;;;8.45;6.63;;;14.70;99.90;;;;;;6279440;22;20082;-62
2023/08/06 03:36:44;;;;;;;8.75;6.10;;;14.70;99.90;;;;;;6278225;22;20048;-63
2023/08/06 03:39:10;;;;;;;7.75;6.00;;;14.70;99.90;;;;;;6279744;22;20026;-63
2023/08/06 03:41:36;;;;;;;10.32;7.38;;;14.70;99.90;;;;;;6225269;22;20071;-63
2023/08/06 03:44:03;;;;;;;12.18;6.72;;;14.70;99.90;;;;;;6280166;22;20027;-63
2023/08/06 03:46:33;;;;;;;7.38;5.85;;;14.70;99.90;;;;;;6252936;22;20030;-63
2023/08/06 03:49:02;;;;;;;11.75;6.25;;;14.70;99.90;;;;;;6281006;22;20023;-63
2023/08/06 03:51:28;;;;;;;9.98;7.20;;;14.70;99.90;;;;;;6254211;22;20087;-63
2023/08/06 03:53:54;;;;;;;10.90;6.93;;;14.70;99.90;;;;;;6279745;22;20024;-63
2023/08/06 03:56:19;;;;;;;15.45;8.27;;;14.70;99.90;;;;;;6281659;22;20513;-63
2023/08/06 03:58:45;;;;;;;8.25;6.53;;;14.70;99.90;;;;;;6279015;22;20027;-63
2023/08/06 04:01:11;;;;;;;7.63;6.50;;;14.70;99.90;;;;;;6281887;22;20023;-63
2023/08/06 04:03:37;;;;;;;8.88;6.43;;;14.70;99.90;;;;;;6280093;22;20166;-63
2023/08/06 04:06:03;;;;;;;13.40;7.28;;;14.70;99.90;;;;;;6253781;22;20085;-64
2023/08/06 04:08:29;;;;;;;9.63;7.35;;;14.70;99.90;;;;;;6228502;22;20453;-63
2023/08/06 04:10:54;;;;;;;8.32;6.72;;;14.70;99.90;;;;;;6279959;22;20024;-64
2023/08/06 04:13:20;;;;;;;12.23;7.03;;;14.70;99.90;;;;;;6228505;22;20059;-63
2023/08/06 04:15:47;;;;;;;9.45;6.95;;;14.70;99.90;;;;;;6279757;22;20027;-63
2023/08/06 04:18:13;;;;;;;10.23;7.05;;;14.80;99.90;;;;;;6254223;22;20023;-62
2023/08/06 04:20:46;;;;;;;8.55;7.20;;;14.80;99.90;;;;;;6252508;22;20031;-63
2023/08/06 04:23:12;;;;;;;9.35;7.05;;;14.80;99.90;;;;;;6253626;22;20023;-64
2023/08/06 04:25:38;;;;;;;9.65;7.20;;;14.70;99.90;;;;;;6280572;22;20019;-63
2023/08/06 04:28:04;;;;;;;8.57;6.70;;;14.80;99.90;;;;;;6227087;22;20046;-64
2023/08/06 04:30:30;;;;;;;8.80;6.60;;;14.80;99.90;;;;;;6281333;22;20016;-62
2023/08/06 04:32:58;;;;;;;8.85;7.10;;;14.70;99.90;;;;;;6279452;22;20063;-63
2023/08/06 04:35:24;;;;;;;10.18;7.85;;;14.70;99.90;;;;;;6229040;22;20024;-63
2023/08/06 04:37:49;;;;;;;13.38;7.32;;;14.80;99.90;;;;;;6252382;22;20033;-62
2023/08/06 04:40:15;;;;;;;11.93;7.57;;;14.80;99.90;;;;;;6253497;22;20548;-63
2023/08/06 04:42:41;;;;;;;11.45;7.40;;;14.80;99.90;;;;;;6280589;22;20024;-63
2023/08/06 04:45:07;;;;;;;11.80;7.22;;;14.80;99.90;;;;;;6252947;22;20012;-63
2023/08/06 04:47:33;;;;;;;11.98;7.53;;;14.80;99.90;;;;;;6281375;22;20077;-62
2023/08/06 04:49:58;;;;;;;9.00;7.20;;;14.90;99.90;;;;;;6252692;22;20019;-63
2023/08/06 04:52:27;;;;;;;9.38;7.53;;;14.80;99.90;;;;;;6229022;22;20028;-62
2023/08/06 04:54:56;;;;;;;10.68;7.90;;;14.90;99.90;;;;;;6227012;22;21110;-62
2023/08/06 04:57:22;;;;;;;10.68;7.40;;;14.90;99.90;;;;;;6280068;22;20023;-63
2023/08/06 04:59:48;;;;;;;9.68;7.95;;;14.90;99.90;;;;;;6280180;22;20096;-63
2023/08/06 05:02:14;;;;;;;8.73;7.60;;;15.00;99.90;;;;;;6252227;22;20031;-63
2023/08/06 05:04:39;;;;;;;9.82;8.30;;;15.00;99.90;;;;;;6253417;22;20026;-63
2023/08/06 05:07:06;;;;;;;9.88;8.38;;;15.00;99.90;;;;;;6251639;22;20027;-63
2023/08/06 05:09:32;;;;;;;11.07;8.75;;;15.10;99.90;;;;;;6253319;22;20051;-63
2023/08/06 05:12:00;;;;;;;12.45;8.43;;;15.30;99.90;;;;;;6278875;22;20034;-63
2023/08/06 05:14:26;;;;;;;10.85;8.27;;;15.30;99.90;;;;;;6280606;22;20031;-64
2023/08/06 05:16:52;;;;;;;13.38;8.80;;;15.20;99.90;;;;;;6280202;22;20481;-63
2023/08/06 05:19:17;;;;;;;11.93;8.05;;;15.20;99.90;;;;;;6251846;22;20028;-64
2023/08/06 05:21:43;;;;;;;10.77;8.13;;;15.20;99.90;;;;;;6253022;22;20027;-63
2023/08/06 05:24:09;;;;;;;12.93;9.23;;;15.30;99.90;;;;;;6279033;22;20022;-63
2023/08/06 05:26:35;;;;;;;11.38;8.43;;;15.30;99.90;;;;;;6227573;22;20067;-64
2023/08/06 05:29:01;;;;;;;8.57;7.45;;;15.30;99.90;;;;;;6251663;22;20011;-63
2023/08/06 05:31:28;;;;;;;11.82;9.38;;;15.30;99.90;;;;;;6280706;22;20023;-63
2023/08/06 05:33:54;;;;;;;11.30;9.52;;;15.30;99.90;;;;;;6252586;22;20020;-63
2023/08/06 05:36:21;;;;;;;12.05;9.52;;;15.30;99.90;;;;;;6279279;22;20099;-63
2023/08/06 05:38:47;;;;;;;13.30;9.68;;;15.30;99.90;;;;;;6280291;22;20088;-63
2023/08/06 05:41:14;;;;;;;11.77;9.98;;;15.20;99.90;;;;;;6251729;22;20028;-63
2023/08/06 05:43:40;;;;;;;12.13;10.18;;;15.20;99.90;;;;;;6280502;22;20059;-63
2023/08/06 05:46:05;;;;;;;11.93;9.85;;;15.20;99.90;;;;;;6251547;22;20035;-63
2023/08/06 05:48:31;;;;;;;14.90;11.40;;;15.20;99.90;;;;;;6252739;22;20082;-63
2023/08/06 05:50:58;;;;;;;14.70;11.68;;;15.10;99.90;;;;;;6252286;22;20063;-63
2023/08/06 05:53:24;;;;;;;19.15;12.93;;;15.10;99.90;;;;;;6279703;22;20070;-63
2023/08/06 05:55:50;;;;;;;18.00;13.20;;;15.20;99.90;;;;;;6227315;22;20024;-63
2023/08/06 05:58:16;;;;;;;17.90;14.07;;;15.10;99.90;;;;;;6251694;22;20031;-63
2023/08/06 06:00:42;;;;;;;25.08;15.75;;;15.20;99.90;;;;;;6253323;22;20046;-62
2023/08/06 06:03:07;;;;;;;24.42;16.25;;;15.10;99.90;;;;;;6251804;22;20027;-64
2023/08/06 06:05:33;;;;;;;21.58;16.02;;;15.10;99.90;;;;;;6279445;22;20031;-65
2023/08/06 06:07:59;;;;;;;21.27;15.20;;;15.10;99.90;;;;;;6225976;22;20023;-65
2023/08/06 06:10:25;;;;;;;21.88;15.13;;;15.20;99.90;;;;;;6226157;22;20103;-64
2023/08/06 06:12:51;;;;;;;21.42;15.18;;;15.20;99.90;;;;;;6252244;22;20034;-65
2023/08/06 06:15:17;;;;;;;20.70;14.82;;;15.10;99.90;;;;;;6250796;22;20020;-65
2023/08/06 06:17:43;;;;;;;20.85;15.30;;;15.20;99.90;;;;;;6252245;22;20024;-65
2023/08/06 06:20:09;;;;;;;21.02;16.23;;;15.20;99.90;;;;;;6224844;22;20024;-65
2023/08/06 06:22:35;;;;;;;21.13;14.20;;;15.20;99.90;;;;;;6252620;22;20051;-65
2023/08/06 06:25:00;;;;;;;18.42;13.43;;;15.20;99.90;;;;;;6278019;22;20028;-65
2023/08/06 06:27:26;;;;;;;18.23;13.93;;;15.20;99.90;;;;;;6252277;22;20091;-65
2023/08/06 06:29:54;;;;;;;16.70;13.13;;;15.20;99.90;;;;;;6279125;22;20033;-64
2023/08/06 06:32:20;;;;;;;15.38;11.77;;;15.20;99.90;;;;;;6251308;22;20024;-61
2023/08/06 06:34:46;;;;;;;20.10;13.70;;;15.20;99.90;;;;;;6279775;22;20500;-62
2023/08/06 06:37:12;;;;;;;15.95;11.85;;;15.20;99.90;;;;;;6250856;22;20039;-61
2023/08/06 06:39:38;;;;;;;16.40;12.73;;;15.30;99.90;;;;;;6251884;22;20031;-64
2023/08/06 06:42:04;;;;;;;19.70;12.73;;;15.30;99.90;;;;;;6278608;22;20048;-61
2023/08/06 06:44:29;;;;;;;17.02;12.95;;;15.30;99.90;;;;;;6252530;22;20365;-63
2023/08/06 06:46:55;;;;;;;17.00;12.48;;;15.30;99.90;;;;;;6279935;22;20027;-63
2023/08/06 06:49:21;;;;;;;15.15;11.75;;;15.40;99.90;;;;;;6249418;22;20031;-64
2023/08/06 06:51:47;;;;;;;17.02;11.55;;;15.50;99.90;;;;;;6227198;22;20070;-66
2023/08/06 06:54:14;;;;;;;16.38;12.15;;;15.50;99.90;;;;;;6277912;22;20459;-64
2023/08/06 06:56:39;;;;;;;14.55;11.38;;;15.50;99.90;;;;;;6252728;22;20510;-65
2023/08/06 06:59:06;;;;;;;13.68;10.75;;;15.60;99.90;;;;;;6224970;22;20058;-64
2023/08/06 07:01:32;;;;;;;14.00;10.93;;;15.60;99.90;;;;;;6279538;22;20031;-64
2023/08/06 07:03:57;;;;;;;16.65;12.07;;;15.70;99.90;;;;;;6276556;22;20191;-64
2023/08/06 07:06:23;;;;;;;16.85;10.75;;;15.60;99.90;;;;;;6276169;22;20031;-65
2023/08/06 07:08:49;;;;;;;12.88;10.65;;;15.70;99.90;;;;;;6226427;22;20024;-65
2023/08/06 07:11:14;;;;;;;11.75;9.93;;;15.70;99.90;;;;;;6277520;22;20023;-65
2023/08/06 07:13:40;;;;;;;12.98;10.40;;;15.70;99.90;;;;;;6252182;22;20023;-64
2023/08/06 07:16:06;;;;;;;13.40;10.63;;;15.70;99.90;;;;;;6277394;22;20042;-64
2023/08/06 07:18:32;;;;;;;11.70;10.43;;;15.70;99.90;;;;;;6276860;22;20058;-63
2023/08/06 07:20:58;;;;;;;14.32;10.88;;;15.70;99.90;;;;;;6252902;22;20376;-62
2023/08/06 07:23:25;;;;;;;13.75;10.82;;;15.70;99.90;;;;;;6280025;22;20717;-63
2023/08/06 07:25:51;;;;;;;13.15;10.98;;;15.70;99.90;;;;;;6280991;22;20031;-63
2023/08/06 07:28:17;;;;;;;13.85;10.52;;;15.80;99.90;;;;;;6280179;22;20024;-62
2023/08/06 07:30:44;;;;;;;17.27;10.40;;;15.80;99.90;;;;;;6281773;22;20031;-62
2023/08/06 07:33:10;;;;;;;13.85;9.98;;;15.80;99.90;;;;;;6252460;22;20341;-64
2023/08/06 07:35:36;;;;;;;13.20;9.95;;;15.80;99.90;;;;;;6281670;22;20020;-63
2023/08/06 07:38:02;;;;;;;11.98;10.57;;;15.80;99.90;;;;;;6253501;22;20034;-65
2023/08/06 07:40:28;;;;;;;13.18;9.50;;;15.90;99.90;;;;;;6253760;22;20024;-62
2023/08/06 07:42:54;;;;;;;13.60;9.45;;;15.90;99.90;;;;;;6281877;22;20373;-63
2023/08/06 07:45:20;;;;;;;11.80;9.88;;;16.00;99.90;;;;;;6252862;22;20063;-63
2023/08/06 07:47:46;;;;;;;12.57;9.70;;;15.90;99.90;;;;;;6254143;22;20020;-63
2023/08/06 07:50:13;;;;;;;12.65;8.77;;;16.00;99.90;;;;;;6279738;22;20068;-62
2023/08/06 07:52:39;;;;;;;11.02;9.80;;;16.00;99.90;;;;;;6254243;22;20423;-63
2023/08/06 07:55:06;;;;;;;12.15;9.55;;;16.00;99.90;;;;;;6253158;22;20358;-63
2023/08/06 07:57:32;;;;;;;12.45;9.95;;;16.00;99.90;;;;;;6280616;22;20026;-63
2023/08/06 07:59:58;;;;;;;12.18;9.05;;;16.00;99.90;;;;;;6227859;22;20027;-63
2023/08/06 08:02:24;;;;;;;12.07;9.70;;;16.10;99.90;;;;;;6279559;22;20210;-63
2023/08/06 08:04:50;;;;;;;12.65;8.60;;;16.20;99.90;;;;;;6281311;22;20121;-63
2023/08/06 08:07:16;;;;;;;10.50;8.23;;;16.10;99.90;;;;;;6226968;22;20023;-63
2023/08/06 08:09:44;;;;;;;12.48;8.60;;;16.20;99.90;;;;;;6254525;22;20020;-63
2023/08/06 08:12:10;;;;;;;12.23;9.38;;;16.20;99.90;;;;;;6280250;22;20060;-63
2023/08/06 08:14:36;;;;;;;12.68;9.38;;;16.20;99.90;;;;;;6253004;22;20020;-64
2023/08/06 08:17:04;;;;;;;12.18;9.48;;;16.20;99.90;;;;;;6280800;22;20051;-63
2023/08/06 08:19:30;;;;;;;14.45;9.15;;;16.20;99.90;;;;;;6279396;22;20027;-63
2023/08/06 08:21:56;;;;;;;10.52;8.88;;;16.30;99.90;;;;;;6280905;22;20031;-63
2023/08/06 08:24:23;;;;;;;10.77;9.52;;;16.30;99.90;;;;;;6279394;22;20158;-63
2023/08/06 08:26:53;;;;;;;12.23;8.65;;;16.30;99.90;;;;;;6281383;22;20027;-62
2023/08/06 08:29:22;;;;;;;11.93;8.40;;;16.30;99.90;;;;;;6252668;22;20057;-63
2023/08/06 08:31:51;;;;;;;11.32;8.80;;;16.30;99.90;;;;;;6202329;22;20027;-63
2023/08/06 08:34:17;;;;;;;9.57;8.13;;;16.40;99.90;;;;;;6253162;22;20035;-63
2023/08/06 08:36:46;;;;;;;10.35;8.68;;;16.40;99.90;;;;;;6252591;22;20229;-63
2023/08/06 08:39:12;;;;;;;10.75;8.23;;;16.40;99.90;;;;;;6254003;22;20023;-63
2023/08/06 08:41:39;;;;;;;10.63;8.88;;;16.50;99.90;;;;;;6279365;22;20024;-64
2023/08/06 08:44:10;;;;;;;10.68;8.65;;;16.50;99.90;;;;;;6253791;22;20023;-63
2023/08/06 08:46:38;;;;;;;12.50;8.02;;;16.50;99.90;;;;;;6203349;22;20053;-64
2023/08/06 08:49:04;;;;;;;10.07;8.30;;;16.60;99.90;;;;;;6279920;22;20030;-63
2023/08/06 08:51:31;;;;;;;11.00;8.35;;;16.60;99.90;;;;;;6228232;22;20062;-63
2023/08/06 08:53:57;;;;;;;11.55;8.52;;;16.60;99.90;;;;;;6279592;22;20019;-63
2023/08/06 08:56:26;;;;;;;10.18;7.53;;;16.60;99.90;;;;;;6228842;22;20031;-65
2023/08/06 08:58:54;;;;;;;8.07;7.22;;;16.70;99.90;;;;;;6252093;22;20027;-63
2023/08/06 09:01:22;;;;;;;10.80;8.27;;;16.70;99.90;;;;;;6228040;22;20023;-65
2023/08/06 09:03:48;;;;;;;9.85;8.30;;;16.90;99.90;;;;;;6280765;22;20023;-66
2023/08/06 09:06:17;;;;;;;8.98;7.45;;;16.90;99.90;;;;;;6280293;22;20027;-65
2023/08/06 09:08:54;;;;;;;8.48;7.10;;;16.90;99.90;;;;;;6228328;22;20461;-65
2023/08/06 09:11:21;;;;;;;10.25;7.40;;;17.10;99.90;;;;;;6251479;22;20098;-65
2023/08/06 09:13:47;;;;;;;8.75;7.03;;;17.10;99.90;;;;;;6280752;22;20024;-64
2023/08/06 09:16:13;;;;;;;7.13;6.25;;;17.10;99.90;;;;;;6251383;22;20023;-65
2023/08/06 09:18:40;;;;;;;9.43;6.80;;;17.20;99.90;;;;;;6278676;22;20062;-65
2023/08/06 09:21:05;;;;;;;8.00;6.07;;;17.30;99.90;;;;;;6279995;22;20520;-65
2023/08/06 09:23:33;;;;;;;7.57;6.20;;;17.40;99.90;;;;;;6278666;22;20071;-64
2023/08/06 09:25:59;;;;;;;10.10;6.30;;;17.40;99.90;;;;;;6253141;22;20148;-65
2023/08/06 09:28:42;;;;;;;8.93;5.88;;;17.40;99.90;;;;;;6279172;22;20322;-66
2023/08/06 09:31:10;;;;;;;7.15;6.38;;;17.40;99.90;;;;;;6253253;22;20042;-64
2023/08/06 09:33:38;;;;;;;7.72;6.10;;;17.50;99.90;;;;;;6279420;22;20047;-64
2023/08/06 09:36:11;;;;;;;6.78;6.07;;;17.50;99.90;;;;;;6252205;22;20034;-65
2023/08/06 09:38:40;;;;;;;8.88;5.68;;;17.50;99.90;;;;;;6253144;22;20023;-67
2023/08/06 09:41:07;;;;;;;7.43;5.38;;;17.60;99.90;;;;;;6226481;22;20028;-65
2023/08/06 09:43:41;;;;;;;7.20;5.40;;;17.60;99.90;;;;;;6280424;22;20051;-66
2023/08/06 09:46:13;;;;;;;8.10;5.97;;;17.80;99.90;;;;;;6226248;22;20035;-67
2023/08/06 09:48:39;;;;;;;7.82;6.65;;;17.80;99.90;;;;;;6253068;22;20067;-66
2023/08/06 09:51:06;;;;;;;6.82;5.95;;;17.80;99.90;;;;;;6227314;22;20421;-67
2023/08/06 09:53:34;;;;;;;9.95;5.93;;;17.80;99.90;;;;;;6251700;22;20023;-66
2023/08/06 09:56:00;;;;;;;6.55;5.40;;;17.90;99.90;;;;;;6280306;22;20016;-66
2023/08/06 09:58:26;;;;;;;6.60;5.88;;;17.90;99.90;;;;;;6225800;22;20027;-66
2023/08/06 10:00:52;;;;;;;6.93;5.30;;;17.90;99.90;;;;;;6227330;22;20043;-66
2023/08/06 10:03:19;;;;;;;5.53;4.97;;;17.90;99.90;;;;;;6278412;22;20339;-66
2023/08/06 10:05:46;;;;;;;7.97;6.05;;;18.00;99.90;;;;;;6253098;22;20092;-67
2023/08/06 10:08:12;;;;;;;5.65;5.03;;;17.90;99.90;;;;;;6252377;22;20027;-68
2023/08/06 10:10:37;;;;;;;7.45;5.60;;;18.00;99.90;;;;;;6226258;22;20028;-67
2023/08/06 10:13:05;;;;;;;6.63;5.43;;;18.10;99.90;;;;;;6253221;22;20051;-67
2023/08/06 10:15:32;;;;;;;6.45;4.45;;;18.10;99.90;;;;;;6278562;22;20028;-67
2023/08/06 10:18:00;;;;;;;6.10;5.50;;;18.20;99.90;;;;;;6280810;22;20031;-68
2023/08/06 10:20:26;;;;;;;5.38;4.57;;;18.30;99.90;;;;;;6251775;22;20024;-67
2023/08/06 10:23:05;;;;;;;6.25;5.13;;;18.30;99.90;;;;;;6252666;22;20446;-68
2023/08/06 10:25:36;;;;;;;5.95;4.38;;;18.30;99.90;;;;;;6279569;22;20031;-67
2023/08/06 10:28:09;;;;;;;5.05;4.43;;;18.40;99.90;;;;;;6278714;22;20019;-68
2023/08/06 10:30:42;;;;;;;7.82;4.55;;;18.40;99.90;;;;;;6279835;22;20110;-68
2023/08/06 10:33:08;;;;;;;9.13;4.43;;;18.40;99.90;;;;;;6251842;22;20016;-65
2023/08/06 10:35:45;;;;;;;4.45;3.88;;;18.50;99.90;;;;;;6252980;22;20424;-66
2023/08/06 10:38:22;;;;;;;5.95;4.38;;;18.70;99.90;;;;;;6228204;22;20027;-66
2023/08/06 10:40:54;;;;;;;5.10;4.40;;;18.70;99.90;;;;;;6251200;22;20100;-64
2023/08/06 10:43:26;;;;;;;5.60;4.32;;;18.70;99.90;;;;;;6279905;22;20079;-65
2023/08/06 10:45:51;;;;;;;5.50;4.50;;;18.90;99.90;;;;;;6277827;22;20024;-65
2023/08/06 10:48:32;;;;;;;5.40;4.90;;;19.00;99.90;;;;;;6279667;22;20281;-65
2023/08/06 10:51:01;;;;;;;7.68;4.50;;;19.00;99.90;;;;;;6279175;22;20111;-65
2023/08/06 10:53:27;;;;;;;5.30;4.07;;;19.00;99.90;;;;;;6251232;22;20477;-64
2023/08/06 10:55:52;;;;;;;6.32;4.10;;;19.10;99.90;;;;;;6282298;22;20030;-65
2023/08/06 10:58:18;;;;;;;6.18;4.63;;;19.10;99.90;;;;;;6253324;22;20038;-65
2023/08/06 11:00:45;;;;;;;7.88;5.28;;;19.20;99.90;;;;;;6254639;22;20024;-66
2023/08/06 11:03:11;;;;;;;5.68;4.45;;;19.10;99.90;;;;;;6252761;22;20023;-67
2023/08/06 11:05:36;;;;;;;6.28;4.82;;;19.20;99.90;;;;;;6254233;22;20028;-67
2023/08/06 11:08:02;;;;;;;6.93;4.38;;;19.00;99.90;;;;;;6281071;22;20024;-67
2023/08/06 11:10:28;;;;;;;4.40;3.63;;;19.00;99.90;;;;;;6253856;22;20028;-67
2023/08/06 11:12:54;;;;;;;5.43;3.80;;;19.10;99.90;;;;;;6281708;22;20076;-66
2023/08/06 11:15:23;;;;;;;5.78;4.30;;;19.20;99.90;;;;;;6279912;22;20027;-66
2023/08/06 11:17:50;;;;;;;5.45;3.50;;;19.10;99.90;;;;;;6254521;22;20026;-66
2023/08/06 11:20:16;;;;;;;4.20;3.75;;;19.10;99.90;;;;;;6226681;22;20023;-66
2023/08/06 11:22:41;;;;;;;4.55;3.33;;;19.40;99.90;;;;;;6254324;22;20023;-67
2023/08/06 11:25:07;;;;;;;4.93;3.67;;;19.60;99.90;;;;;;6227846;22;20417;-66
2023/08/06 11:27:33;;;;;;;3.60;3.17;;;19.60;99.90;;;;;;6253422;22;20041;-66
2023/08/06 11:29:59;;;;;;;3.42;3.13;;;19.70;99.90;;;;;;6281581;22;20095;-67
2023/08/06 11:32:25;;;;;;;4.20;2.92;;;19.80;99.90;;;;;;6252855;22;20024;-66
2023/08/06 11:34:52;;;;;;;5.43;3.50;;;19.80;99.90;;;;;;6281635;22;20024;-66
2023/08/06 11:37:22;;;;;;;3.33;3.03;;;19.90;99.90;;;;;;6280160;22;20023;-66
2023/08/06 11:39:49;;;;;;;4.95;2.75;;;20.00;99.90;;;;;;6254722;22;20031;-65
2023/08/06 11:42:14;;;;;;;3.47;2.45;;;20.00;99.90;;;;;;6280826;22;20451;-66
2023/08/06 11:44:47;;;;;;;11.05;2.83;;;20.20;99.90;;;;;;6253657;22;20076;-66
2023/08/06 11:47:15;;;;;;;3.00;2.15;;;20.10;99.90;;;;;;6281472;22;20022;-66
2023/08/06 11:49:48;;;;;;;3.83;1.50;;;20.00;99.90;;;;;;6280095;22;20020;-64
2023/08/06 11:52:23;;;;;;;4.20;1.83;;;19.70;99.90;;;;;;6254732;22;20031;-65
2023/08/06 11:55:11;;;;;;;6.15;2.63;;;19.50;99.90;;;;;;6252524;22;20121;-64
2023/08/06 11:57:39;;;;;;;4.32;2.47;;;19.20;99.90;;;;;;6280142;22;20023;-69
2023/08/06 12:00:13;;;;;;;6.60;3.10;;;19.00;99.90;;;;;;6228648;22;20049;-69
2023/08/06 12:02:43;;;;;;;9.75;3.38;;;18.90;99.90;;;;;;6282912;22;20011;-63
2023/08/06 12:05:17;;;;;;;6.18;3.15;;;18.60;99.90;;;;;;6287221;22;20020;-63
2023/08/06 12:07:49;;;;;;;5.95;2.95;;;18.50;99.90;;;;;;6281388;22;20035;-63
2023/08/06 12:10:16;;;;;;;5.43;2.78;;;18.40;99.90;;;;;;6281002;22;20020;-64
2023/08/06 12:12:42;;;;;;;6.80;2.90;;;18.30;99.90;;;;;;6280762;22;20054;-63
2023/08/06 12:15:09;;;;;;;7.55;2.97;;;18.20;99.90;;;;;;6280109;22;20023;-60
2023/08/06 12:17:36;;;;;;;4.50;2.80;;;18.10;99.90;;;;;;6281178;22;20031;-60
2023/08/06 12:20:06;;;;;;;4.57;2.80;;;18.00;99.90;;;;;;6279786;22;20051;-60
2023/08/06 12:22:35;;;;;;;4.68;2.80;;;18.00;99.90;;;;;;6281703;22;20058;-60
2023/08/06 12:25:03;;;;;;;6.20;2.75;;;18.00;99.90;;;;;;6277702;22;20093;-61
2023/08/06 12:27:29;;;;;;;5.15;3.33;;;18.10;99.90;;;;;;6279939;22;20023;-61
2023/08/06 12:29:55;;;;;;;6.43;3.10;;;18.10;99.90;;;;;;6280406;22;20100;-61
2023/08/06 12:32:21;;;;;;;4.22;2.95;;;18.10;99.90;;;;;;6279548;22;20030;-63
2023/08/06 12:34:47;;;;;;;4.45;2.78;;;18.10;99.90;;;;;;6281146;22;20525;-62
2023/08/06 12:37:13;;;;;;;2.65;2.45;;;18.10;99.90;;;;;;6251940;22;20674;-63
2023/08/06 12:39:39;;;;;;;3.58;2.70;;;18.00;99.90;;;;;;6281312;22;20425;-63